Time;durP1;ratioP1;P1;durP2;ratioP2;P2;SDS_P1;SDS_P2;PMS_P1;PMS_P2;Temp;Humidity;BMP_temperature;BMP_pressure;BME280_temperature;BME280_humidity;BME280_pressure;Samples;Min_cycle;Max_cycle;Signal;HPM_P1;HPM_P2
2023/04/23 00:00:47;;;;;;;103.63;38.58;;;;;;;;;;2019286;29;20425;-91
2023/04/23 00:02:10;;;;;;;107.32;38.35;;;;;;;;;;2018712;29;20033;-92
2023/04/23 00:03:33;;;;;;;114.43;39.63;;;;;;;;;;2018655;29;20037;-92
2023/04/23 00:04:56;;;;;;;115.55;40.42;;;;;;;;;;2017094;29;20069;-91
2023/04/23 00:06:17;;;;;;;112.93;36.80;;;;;;;;;;2017494;29;20049;-91
2023/04/23 00:07:38;;;;;;;107.13;38.30;;;;;;;;;;2019509;29;20036;-91
2023/04/23 00:09:00;;;;;;;103.43;38.50;;;;;;;;;;2019035;29;20036;-92
2023/04/23 00:10:21;;;;;;;109.18;39.65;;;;;;;;;;2016907;29;20062;-92
2023/04/23 00:11:42;;;;;;;109.80;38.08;;;;;;;;;;2017482;29;20025;-92
2023/04/23 00:13:04;;;;;;;123.20;39.70;;;;;;;;;;2017862;29;20409;-92
2023/04/23 00:14:25;;;;;;;112.55;37.67;;;;;;;;;;2017924;29;20024;-92
2023/04/23 00:15:46;;;;;;;117.60;39.95;;;;;;;;;;2014258;29;20033;-92
2023/04/23 00:17:07;;;;;;;107.78;37.72;;;;;;;;;;2017421;29;20500;-92
2023/04/23 00:18:28;;;;;;;99.85;35.80;;;;;;;;;;2016134;29;20068;-92
2023/04/23 00:19:50;;;;;;;114.47;38.97;;;;;;;;;;2014224;29;20149;-91
2023/04/23 00:21:11;;;;;;;105.38;37.58;;;;;;;;;;2019784;29;20093;-91
2023/04/23 00:22:32;;;;;;;102.82;36.83;;;;;;;;;;2018260;29;20104;-92
2023/04/23 00:23:54;;;;;;;107.35;38.00;;;;;;;;;;2015860;29;20058;-92
2023/04/23 00:25:14;;;;;;;88.45;34.72;;;;;;;;;;2010391;29;20033;-92
2023/04/23 00:26:35;;;;;;;97.63;36.13;;;;;;;;;;2007268;29;20424;-92
2023/04/23 00:27:56;;;;;;;105.88;35.72;;;;;;;;;;2011050;29;20466;-92
2023/04/23 00:29:17;;;;;;;94.05;36.60;;;;;;;;;;2012500;29;20037;-93
2023/04/23 00:30:38;;;;;;;96.50;34.88;;;;;;;;;;2022923;29;20036;-91
2023/04/23 00:31:59;;;;;;;108.10;37.67;;;;;;;;;;2018668;29;20033;-92
2023/04/23 00:33:20;;;;;;;91.22;34.83;;;;;;;;;;2018462;29;20442;-91
2023/04/23 00:34:41;;;;;;;102.82;37.25;;;;;;;;;;2015241;29;20381;-92
2023/04/23 00:36:02;;;;;;;103.57;36.38;;;;;;;;;;2016826;29;20029;-92
2023/04/23 00:37:23;;;;;;;99.63;36.72;;;;;;;;;;2018612;29;20025;-92
2023/04/23 00:38:44;;;;;;;95.57;36.15;;;;;;;;;;2015826;29;20033;-92
2023/04/23 00:40:06;;;;;;;89.20;35.70;;;;;;;;;;2016854;29;20043;-92
2023/04/23 00:41:27;;;;;;;;;;;;;;;;;;2016506;29;20481;-92
2023/04/23 00:42:51;;;;;;;91.72;35.28;;;;;;;;;;2015157;29;20140;-92
2023/04/23 00:44:12;;;;;;;93.93;35.03;;;;;;;;;;2017255;29;20424;-92
2023/04/23 00:45:33;;;;;;;93.15;33.22;;;;;;;;;;2015871;29;20509;-92
2023/04/23 00:46:54;;;;;;;94.75;35.13;;;;;;;;;;2018542;29;20045;-91
2023/04/23 00:48:15;;;;;;;92.75;33.20;;;;;;;;;;2014712;29;20041;-92
2023/04/23 00:49:38;;;;;;;90.20;32.65;;;;;;;;;;2019566;29;20040;-92
2023/04/23 00:51:02;;;;;;;95.35;33.22;;;;;;;;;;2014544;29;20159;-92
2023/04/23 00:52:22;;;;;;;94.38;34.95;;;;;;;;;;2015925;29;20040;-93
2023/04/23 00:53:43;;;;;;;104.13;37.05;;;;;;;;;;2015638;29;20029;-92
2023/04/23 00:55:05;;;;;;;87.30;32.80;;;;;;;;;;2019344;29;20036;-92
2023/04/23 00:56:26;;;;;;;92.05;33.38;;;;;;;;;;2022046;29;20085;-92
2023/04/23 00:57:47;;;;;;;89.35;33.47;;;;;;;;;;2019884;29;20029;-92
2023/04/23 00:59:08;;;;;;;92.35;33.10;;;;;;;;;;2017246;29;20028;-91
2023/04/23 01:00:31;;;;;;;86.43;31.80;;;;;;;;;;2025851;29;20033;-96
2023/04/23 01:01:52;;;;;;;114.57;39.20;;;;;;;;;;2041301;23;20035;-71
2023/04/23 01:03:17;;;;;;;85.13;33.15;;;;;;;;;;2023281;29;20108;-74
2023/04/23 01:04:39;;;;;;;93.75;36.05;;;;;;;;;;2027863;29;20039;-73
2023/04/23 01:06:00;;;;;;;;;;;;;;;;;;2029785;29;20503;-73
2023/04/23 01:07:21;;;;;;;83.97;33.38;;;;;;;;;;2031275;29;19942;-73
2023/04/23 01:08:42;;;;;;;86.60;33.67;;;;;;;;;;2031532;29;20490;-73
2023/04/23 01:10:04;;;;;;;85.45;33.80;;;;;;;;;;2034118;29;20040;-73
2023/04/23 01:11:24;;;;;;;83.90;34.47;;;;;;;;;;2030116;29;20380;-74
2023/04/23 01:12:47;;;;;;;87.00;34.40;;;;;;;;;;2014358;29;20033;-73
2023/04/23 01:14:07;;;;;;;;;;;;;;;;;;2024656;29;20025;-73
2023/04/23 01:15:28;;;;;;;76.20;31.52;;;;;;;;;;2034099;29;19911;-73
2023/04/23 01:16:49;;;;;;;88.40;33.00;;;;;;;;;;2025977;29;20049;-73
2023/04/23 01:18:11;;;;;;;86.32;33.20;;;;;;;;;;2023704;29;20029;-73
2023/04/23 01:19:32;;;;;;;80.30;33.65;;;;;;;;;;2028935;29;20036;-73
2023/04/23 01:20:53;;;;;;;79.78;33.10;;;;;;;;;;2022111;29;20116;-73
2023/04/23 01:22:15;;;;;;;84.38;31.98;;;;;;;;;;2020791;29;20036;-73
2023/04/23 01:23:36;;;;;;;81.50;33.53;;;;;;;;;;2022810;29;20028;-73
2023/04/23 01:24:56;;;;;;;84.50;34.75;;;;;;;;;;2021874;29;20036;-73
2023/04/23 01:26:17;;;;;;;84.85;33.17;;;;;;;;;;2027757;29;20389;-73
2023/04/23 01:27:39;;;;;;;84.05;33.38;;;;;;;;;;2030904;29;20048;-73
2023/04/23 01:29:00;;;;;;;87.88;35.10;;;;;;;;;;2030111;29;20040;-73
2023/04/23 01:30:21;;;;;;;89.55;34.22;;;;;;;;;;2035400;29;20474;-73
2023/04/23 01:31:42;;;;;;;88.18;34.15;;;;;;;;;;2022682;29;20025;-73
2023/04/23 01:33:04;;;;;;;86.45;33.97;;;;;;;;;;2023135;29;20032;-73
2023/04/23 01:34:24;;;;;;;88.22;33.97;;;;;;;;;;2029004;29;20031;-73
2023/04/23 01:35:46;;;;;;;76.88;32.80;;;;;;;;;;2036070;29;20458;-73
2023/04/23 01:37:07;;;;;;;86.07;35.92;;;;;;;;;;2030759;29;20063;-73
2023/04/23 01:38:29;;;;;;;81.22;33.00;;;;;;;;;;2031462;29;20127;-73
2023/04/23 01:39:51;;;;;;;84.60;34.90;;;;;;;;;;2031540;29;20032;-73
2023/04/23 01:41:11;;;;;;;79.00;33.53;;;;;;;;;;2029034;29;20048;-73
2023/04/23 01:42:32;;;;;;;80.82;34.28;;;;;;;;;;2023257;29;20067;-73
2023/04/23 01:43:54;;;;;;;78.90;33.38;;;;;;;;;;2022037;29;20040;-73
2023/04/23 01:45:18;;;;;;;83.82;32.08;;;;;;;;;;2034637;29;20040;-73
2023/04/23 01:46:39;;;;;;;79.32;32.25;;;;;;;;;;2030767;29;20393;-73
2023/04/23 01:48:00;;;;;;;80.30;34.15;;;;;;;;;;2030453;29;20047;-73
2023/04/23 01:49:21;;;;;;;85.82;33.40;;;;;;;;;;2029706;29;20043;-73
2023/04/23 01:50:42;;;;;;;80.15;33.85;;;;;;;;;;2026948;29;20045;-72
2023/04/23 01:52:03;;;;;;;75.90;31.67;;;;;;;;;;2023873;29;20044;-73
2023/04/23 01:53:24;;;;;;;83.07;33.70;;;;;;;;;;2028068;29;20036;-73
2023/04/23 01:54:45;;;;;;;83.40;36.05;;;;;;;;;;2031052;29;20339;-73
2023/04/23 01:56:08;;;;;;;78.28;32.78;;;;;;;;;;2033874;29;20111;-73
2023/04/23 01:57:29;;;;;;;81.72;33.53;;;;;;;;;;2038493;29;20079;-72
2023/04/23 01:58:50;;;;;;;88.28;34.58;;;;;;;;;;2029107;29;20088;-73
2023/04/23 02:00:12;;;;;;;76.22;32.20;;;;;;;;;;2026573;29;20043;-73
2023/04/23 02:01:45;;;;;;;77.65;33.10;;;;;;;;;;2027550;29;20028;-73
2023/04/23 02:03:06;;;;;;;81.72;33.92;;;;;;;;;;2023463;29;20139;-73
2023/04/23 02:04:28;;;;;;;79.82;34.10;;;;;;;;;;2020482;29;20388;-73
2023/04/23 02:05:49;;;;;;;82.78;34.50;;;;;;;;;;2016214;29;20077;-73
2023/04/23 02:07:10;;;;;;;79.72;34.55;;;;;;;;;;2021890;29;20049;-73
2023/04/23 02:08:31;;;;;;;77.05;34.38;;;;;;;;;;2023223;29;20044;-73
2023/04/23 02:09:52;;;;;;;82.20;34.65;;;;;;;;;;2022312;29;20036;-73
2023/04/23 02:11:13;;;;;;;83.70;34.67;;;;;;;;;;2028464;29;20091;-73
2023/04/23 02:12:34;;;;;;;78.78;34.25;;;;;;;;;;2023051;29;20073;-73
2023/04/23 02:13:55;;;;;;;68.05;32.33;;;;;;;;;;2022036;29;20035;-74
2023/04/23 02:15:16;;;;;;;73.53;32.90;;;;;;;;;;2031917;29;20027;-73
2023/04/23 02:16:37;;;;;;;78.40;32.20;;;;;;;;;;2024763;29;20407;-74
2023/04/23 02:17:58;;;;;;;75.43;33.00;;;;;;;;;;2023765;29;20032;-74
2023/04/23 02:19:19;;;;;;;83.47;32.67;;;;;;;;;;2028949;29;20424;-74
2023/04/23 02:20:40;;;;;;;70.47;32.15;;;;;;;;;;2035365;29;20380;-74
2023/04/23 02:22:01;;;;;;;76.25;31.63;;;;;;;;;;2031147;29;20353;-74
2023/04/23 02:23:22;;;;;;;66.00;30.60;;;;;;;;;;2030236;29;20036;-74
2023/04/23 02:24:43;;;;;;;71.15;32.15;;;;;;;;;;2022261;29;20504;-74
2023/04/23 02:26:04;;;;;;;66.35;30.08;;;;;;;;;;2020597;29;20089;-74
2023/04/23 02:27:24;;;;;;;71.55;31.15;;;;;;;;;;2027959;29;20496;-74
2023/04/23 02:28:45;;;;;;;72.40;32.58;;;;;;;;;;2031372;29;20036;-74
2023/04/23 02:30:08;;;;;;;70.13;29.50;;;;;;;;;;2024154;29;20036;-74
2023/04/23 02:31:28;;;;;;;;;;;;;;;;;;2021871;29;20045;-75
2023/04/23 02:32:50;;;;;;;72.18;32.65;;;;;;;;;;2030265;29;20307;-74
2023/04/23 02:34:11;;;;;;;70.65;32.38;;;;;;;;;;2032719;29;20035;-74
2023/04/23 02:35:31;;;;;;;71.25;31.55;;;;;;;;;;2033983;29;20020;-74
2023/04/23 02:36:52;;;;;;;69.55;31.40;;;;;;;;;;2026326;29;20040;-75
2023/04/23 02:38:13;;;;;;;66.80;30.90;;;;;;;;;;2032776;29;20036;-74
2023/04/23 02:39:34;;;;;;;76.60;33.00;;;;;;;;;;2023214;29;20488;-75
2023/04/23 02:40:55;;;;;;;70.78;30.20;;;;;;;;;;2028951;29;20036;-74
2023/04/23 02:42:16;;;;;;;75.57;32.70;;;;;;;;;;2016133;29;20421;-74
2023/04/23 02:43:37;;;;;;;75.03;32.30;;;;;;;;;;2029136;29;20039;-74
2023/04/23 02:44:58;;;;;;;72.05;32.95;;;;;;;;;;2032323;29;20029;-74
2023/04/23 02:46:19;;;;;;;75.50;32.92;;;;;;;;;;2031901;29;20380;-74
2023/04/23 02:47:39;;;;;;;72.45;31.98;;;;;;;;;;2024340;29;20047;-74
2023/04/23 02:49:00;;;;;;;77.95;32.20;;;;;;;;;;2029326;29;20051;-74
2023/04/23 02:50:21;;;;;;;74.75;32.92;;;;;;;;;;2028065;29;20036;-74
2023/04/23 02:51:42;;;;;;;70.85;30.83;;;;;;;;;;2021778;29;20251;-74
2023/04/23 02:53:04;;;;;;;79.53;32.88;;;;;;;;;;2036428;29;20039;-74
2023/04/23 02:54:25;;;;;;;74.50;32.75;;;;;;;;;;2033941;29;20340;-74
2023/04/23 02:55:46;;;;;;;70.38;31.33;;;;;;;;;;2024003;29;20028;-74
2023/04/23 02:57:07;;;;;;;71.00;30.27;;;;;;;;;;2029369;29;20040;-74
2023/04/23 02:58:28;;;;;;;65.68;30.88;;;;;;;;;;2024547;29;20036;-75
2023/04/23 02:59:49;;;;;;;70.18;31.13;;;;;;;;;;2021894;29;20484;-74
2023/04/23 03:01:10;;;;;;;65.40;29.58;;;;;;;;;;2023869;29;20154;-73
2023/04/23 03:02:31;;;;;;;72.82;33.80;;;;;;;;;;2023304;29;20368;-74
2023/04/23 03:03:52;;;;;;;75.00;32.33;;;;;;;;;;2015409;29;20044;-74
2023/04/23 03:05:13;;;;;;;70.05;30.65;;;;;;;;;;2017812;29;20028;-74
2023/04/23 03:06:34;;;;;;;68.47;32.15;;;;;;;;;;2024543;29;20028;-74
2023/04/23 03:07:55;;;;;;;58.83;29.70;;;;;;;;;;2009205;29;20086;-74
2023/04/23 03:09:16;;;;;;;63.97;30.48;;;;;;;;;;2018655;29;20032;-74
2023/04/23 03:10:37;;;;;;;74.95;33.78;;;;;;;;;;2028135;29;20137;-74
2023/04/23 03:11:58;;;;;;;71.45;32.70;;;;;;;;;;2016869;29;20037;-74
2023/04/23 03:13:19;;;;;;;60.65;30.48;;;;;;;;;;2016681;29;20036;-74
2023/04/23 03:14:39;;;;;;;76.85;33.63;;;;;;;;;;2010913;29;20041;-74
2023/04/23 03:16:00;;;;;;;78.45;33.67;;;;;;;;;;2019707;29;20361;-74
2023/04/23 03:17:21;;;;;;;76.90;32.13;;;;;;;;;;2016614;29;20077;-74
2023/04/23 03:18:42;;;;;;;65.25;31.15;;;;;;;;;;2008352;29;20036;-73
2023/04/23 03:20:03;;;;;;;69.82;32.08;;;;;;;;;;2015046;29;20112;-74
2023/04/23 03:21:24;;;;;;;69.15;30.50;;;;;;;;;;2021243;29;20179;-75
2023/04/23 03:22:45;;;;;;;60.33;29.92;;;;;;;;;;2016484;29;20105;-75
2023/04/23 03:24:06;;;;;;;66.55;31.13;;;;;;;;;;2020364;29;20029;-74
2023/04/23 03:25:27;;;;;;;65.25;30.85;;;;;;;;;;2026730;29;20036;-74
2023/04/23 03:26:48;;;;;;;63.35;30.58;;;;;;;;;;2012086;29;20045;-74
2023/04/23 03:28:09;;;;;;;61.15;30.45;;;;;;;;;;2013123;29;20041;-74
2023/04/23 03:29:30;;;;;;;57.38;29.52;;;;;;;;;;2021602;29;20096;-74
2023/04/23 03:30:51;;;;;;;65.72;31.95;;;;;;;;;;2023913;29;20040;-74
2023/04/23 03:32:12;;;;;;;63.35;30.17;;;;;;;;;;2023752;29;20051;-74
2023/04/23 03:33:32;;;;;;;62.17;29.23;;;;;;;;;;2023633;29;20033;-75
2023/04/23 03:34:53;;;;;;;60.85;29.42;;;;;;;;;;2023191;29;20033;-75
2023/04/23 03:36:15;;;;;;;61.58;29.73;;;;;;;;;;2023232;29;20032;-74
2023/04/23 03:37:35;;;;;;;63.75;31.92;;;;;;;;;;2023651;29;20404;-74
2023/04/23 03:38:56;;;;;;;66.50;32.00;;;;;;;;;;2022998;29;20036;-74
2023/04/23 03:40:18;;;;;;;57.78;28.40;;;;;;;;;;2025111;29;20041;-74
2023/04/23 03:41:38;;;;;;;62.80;30.80;;;;;;;;;;2015719;29;20040;-74
2023/04/23 03:42:59;;;;;;;62.13;30.25;;;;;;;;;;2014359;29;20067;-74
2023/04/23 03:44:20;;;;;;;54.42;27.95;;;;;;;;;;2021003;29;20036;-74
2023/04/23 03:45:41;;;;;;;56.03;28.70;;;;;;;;;;2024576;29;20083;-75
2023/04/23 03:47:02;;;;;;;65.22;30.10;;;;;;;;;;2016503;29;20570;-74
2023/04/23 03:48:23;;;;;;;61.38;30.00;;;;;;;;;;2020792;29;20051;-75
2023/04/23 03:49:44;;;;;;;59.92;31.30;;;;;;;;;;2024590;29;20028;-74
2023/04/23 03:51:05;;;;;;;56.47;29.35;;;;;;;;;;2023223;29;20455;-75
2023/04/23 03:52:26;;;;;;;63.22;30.42;;;;;;;;;;2023661;29;20040;-74
2023/04/23 03:53:47;;;;;;;68.78;31.45;;;;;;;;;;2014376;29;20029;-74
2023/04/23 03:55:08;;;;;;;54.67;28.30;;;;;;;;;;2025302;29;20024;-74
2023/04/23 03:56:29;;;;;;;63.80;29.55;;;;;;;;;;2023557;29;20033;-74
2023/04/23 03:57:50;;;;;;;62.92;29.60;;;;;;;;;;2024476;29;20120;-74
2023/04/23 03:59:11;;;;;;;54.75;29.60;;;;;;;;;;2015714;29;20041;-74
2023/04/23 04:00:32;;;;;;;63.35;30.27;;;;;;;;;;2022021;29;20412;-74
2023/04/23 04:01:53;;;;;;;56.13;28.10;;;;;;;;;;2017730;29;20419;-74
2023/04/23 04:03:14;;;;;;;62.00;31.17;;;;;;;;;;2024128;29;20036;-74
2023/04/23 04:04:35;;;;;;;69.35;30.48;;;;;;;;;;2015562;29;20078;-74
2023/04/23 04:05:56;;;;;;;58.50;29.58;;;;;;;;;;2017722;29;20039;-74
2023/04/23 04:07:17;;;;;;;64.22;30.80;;;;;;;;;;2023482;29;20044;-74
2023/04/23 04:08:38;;;;;;;59.92;29.10;;;;;;;;;;2024258;29;20036;-74
2023/04/23 04:10:01;;;;;;;58.53;28.95;;;;;;;;;;2018066;29;20397;-74
2023/04/23 04:11:22;;;;;;;57.00;28.65;;;;;;;;;;2021419;29;20075;-73
2023/04/23 04:12:46;;;;;;;56.20;28.55;;;;;;;;;;2024276;29;20056;-74
2023/04/23 04:14:07;;;;;;;55.20;28.58;;;;;;;;;;2022650;29;20119;-74
2023/04/23 04:15:28;;;;;;;55.45;30.05;;;;;;;;;;2014816;29;20489;-74
2023/04/23 04:16:49;;;;;;;53.88;28.42;;;;;;;;;;2016283;29;20044;-74
2023/04/23 04:18:09;;;;;;;54.92;28.98;;;;;;;;;;2016214;29;20048;-72
2023/04/23 04:19:30;;;;;;;54.60;29.80;;;;;;;;;;2021461;29;20040;-74
2023/04/23 04:20:52;;;;;;;50.53;27.75;;;;;;;;;;2020008;29;20033;-74
2023/04/23 04:22:13;;;;;;;50.85;26.70;;;;;;;;;;2024221;29;20039;-74
2023/04/23 04:23:34;;;;;;;57.83;27.35;;;;;;;;;;2007966;29;20037;-74
2023/04/23 04:24:56;;;;;;;52.10;25.45;;;;;;;;;;2013671;29;20033;-74
2023/04/23 04:26:17;;;;;;;50.05;27.30;;;;;;;;;;2020565;29;20059;-74
2023/04/23 04:27:40;;;;;;;57.75;29.67;;;;;;;;;;2013988;29;20045;-74
2023/04/23 04:29:01;;;;;;;52.72;28.80;;;;;;;;;;2013224;29;20469;-74
2023/04/23 04:30:22;;;;;;;48.15;26.85;;;;;;;;;;2026665;29;20051;-74
2023/04/23 04:31:43;;;;;;;50.97;26.17;;;;;;;;;;2016748;29;20033;-74
2023/04/23 04:33:04;;;;;;;55.70;27.98;;;;;;;;;;2019615;29;20025;-74
2023/04/23 04:34:25;;;;;;;45.25;24.58;;;;;;;;;;2023440;29;20029;-74
2023/04/23 04:35:48;;;;;;;52.60;27.52;;;;;;;;;;2011162;29;20037;-74
2023/04/23 04:37:10;;;;;;;49.30;26.08;;;;;;;;;;2021026;29;20044;-74
2023/04/23 04:38:31;;;;;;;53.75;26.85;;;;;;;;;;2023939;29;20068;-74
2023/04/23 04:39:53;;;;;;;54.45;27.63;;;;;;;;;;2016083;29;20431;-74
2023/04/23 04:41:14;;;;;;;48.00;26.40;;;;;;;;;;2019074;29;20029;-74
2023/04/23 04:42:35;;;;;;;52.90;26.92;;;;;;;;;;2015853;29;20037;-74
2023/04/23 04:43:57;;;;;;;55.40;28.13;;;;;;;;;;2014681;29;20030;-75
2023/04/23 04:45:18;;;;;;;;;;;;;;;;;;2028344;29;20396;-75
2023/04/23 04:46:41;;;;;;;50.55;26.90;;;;;;;;;;2023534;29;19979;-75
2023/04/23 04:48:02;;;;;;;50.63;26.00;;;;;;;;;;2016290;29;20746;-74
2023/04/23 04:49:23;;;;;;;48.67;27.45;;;;;;;;;;2019614;29;20146;-74
2023/04/23 04:50:45;;;;;;;49.50;26.98;;;;;;;;;;2028372;29;20039;-74
2023/04/23 04:52:06;;;;;;;52.88;25.77;;;;;;;;;;2015533;29;20044;-74
2023/04/23 04:53:27;;;;;;;48.30;25.95;;;;;;;;;;2021877;29;20047;-72
2023/04/23 04:54:47;;;;;;;47.22;25.38;;;;;;;;;;2023134;29;20041;-74
2023/04/23 04:56:08;;;;;;;52.65;25.65;;;;;;;;;;2025515;29;20029;-74
2023/04/23 04:57:29;;;;;;;51.10;26.27;;;;;;;;;;2015904;29;20388;-74
2023/04/23 04:58:50;;;;;;;47.25;25.35;;;;;;;;;;2017946;29;20033;-74
2023/04/23 05:00:21;;;;;;;48.30;25.10;;;;;;;;;;2018779;29;20025;-74
2023/04/23 05:01:42;;;;;;;46.92;24.17;;;;;;;;;;2015288;29;20139;-74
2023/04/23 05:03:03;;;;;;;55.53;26.10;;;;;;;;;;2023418;29;20040;-74
2023/04/23 05:04:24;;;;;;;47.97;26.23;;;;;;;;;;2014748;29;20037;-74
2023/04/23 05:05:47;;;;;;;42.50;24.42;;;;;;;;;;2025698;29;20487;-74
2023/04/23 05:07:08;;;;;;;51.28;26.75;;;;;;;;;;2023323;29;20409;-74
2023/04/23 05:08:29;;;;;;;48.00;25.35;;;;;;;;;;2023654;29;20037;-74
2023/04/23 05:09:49;;;;;;;50.60;25.40;;;;;;;;;;2024296;29;20040;-75
2023/04/23 05:11:10;;;;;;;52.13;26.02;;;;;;;;;;2015306;29;20056;-74
2023/04/23 05:12:31;;;;;;;54.80;27.65;;;;;;;;;;2022569;29;20440;-74
2023/04/23 05:13:52;;;;;;;50.10;26.58;;;;;;;;;;2023434;29;20055;-74
2023/04/23 05:15:13;;;;;;;47.38;24.95;;;;;;;;;;2027219;29;20047;-74
2023/04/23 05:16:34;;;;;;;43.40;26.17;;;;;;;;;;2019256;29;20025;-74
2023/04/23 05:17:55;;;;;;;45.83;25.58;;;;;;;;;;2014546;29;20400;-74
2023/04/23 05:19:16;;;;;;;49.80;26.13;;;;;;;;;;2019915;29;20025;-74
2023/04/23 05:20:37;;;;;;;49.10;26.73;;;;;;;;;;2028359;29;20475;-74
2023/04/23 05:21:58;;;;;;;48.10;25.40;;;;;;;;;;2016460;29;20041;-74
2023/04/23 05:23:19;;;;;;;46.10;25.45;;;;;;;;;;2006844;29;20041;-74
2023/04/23 05:24:39;;;;;;;50.10;25.73;;;;;;;;;;2019563;29;20040;-75
2023/04/23 05:26:02;;;;;;;50.60;26.20;;;;;;;;;;2021867;29;20419;-74
2023/04/23 05:27:23;;;;;;;49.30;26.80;;;;;;;;;;2022708;29;20455;-74
2023/04/23 05:28:44;;;;;;;48.33;25.25;;;;;;;;;;2022798;29;20040;-74
2023/04/23 05:30:07;;;;;;;44.95;24.63;;;;;;;;;;2025685;29;20070;-75
2023/04/23 05:31:28;;;;;;;44.65;24.48;;;;;;;;;;2013807;29;20048;-74
2023/04/23 05:32:49;;;;;;;47.50;25.50;;;;;;;;;;2021055;29;20025;-74
2023/04/23 05:34:09;;;;;;;51.20;27.15;;;;;;;;;;2022820;29;20041;-75
2023/04/23 05:35:30;;;;;;;47.67;24.98;;;;;;;;;;2023120;29;20060;-74
2023/04/23 05:36:51;;;;;;;54.42;28.27;;;;;;;;;;2007827;29;20029;-75
2023/04/23 05:38:12;;;;;;;45.47;25.25;;;;;;;;;;2014430;29;20044;-75
2023/04/23 05:39:33;;;;;;;51.95;27.67;;;;;;;;;;2012665;29;20026;-74
2023/04/23 05:40:54;;;;;;;49.55;25.60;;;;;;;;;;2012270;29;20462;-72
2023/04/23 05:42:15;;;;;;;52.40;25.98;;;;;;;;;;2007676;29;20049;-72
2023/04/23 05:43:36;;;;;;;47.83;24.60;;;;;;;;;;2020380;29;20036;-72
2023/04/23 05:44:56;;;;;;;53.13;32.22;;;;;;;;;;2018659;29;20560;-72
2023/04/23 05:46:17;;;;;;;48.25;26.60;;;;;;;;;;2024002;29;20083;-72
2023/04/23 05:47:38;;;;;;;44.70;25.27;;;;;;;;;;2022927;29;20039;-72
2023/04/23 05:48:59;;;;;;;46.42;25.05;;;;;;;;;;2015730;29;20049;-73
2023/04/23 05:50:21;;;;;;;48.13;26.45;;;;;;;;;;2022300;29;20036;-72
2023/04/23 05:51:41;;;;;;;44.85;25.48;;;;;;;;;;2015859;29;20025;-73
2023/04/23 05:53:02;;;;;;;52.20;24.83;;;;;;;;;;2014662;29;20040;-75
2023/04/23 05:54:23;;;;;;;45.30;25.35;;;;;;;;;;2022509;29;20479;-75
2023/04/23 05:55:44;;;;;;;41.92;24.05;;;;;;;;;;2027130;29;20052;-75
2023/04/23 05:57:05;;;;;;;35.90;22.73;;;;;;;;;;2024145;29;20484;-75
2023/04/23 05:58:26;;;;;;;43.75;24.92;;;;;;;;;;2015538;29;20045;-73
2023/04/23 05:59:47;;;;;;;45.15;23.95;;;;;;;;;;2020749;29;20033;-72
2023/04/23 06:01:08;;;;;;;42.08;22.98;;;;;;;;;;2023870;29;20040;-72
2023/04/23 06:02:29;;;;;;;41.40;23.48;;;;;;;;;;2022553;29;20472;-72
2023/04/23 06:03:51;;;;;;;41.13;22.70;;;;;;;;;;2016896;29;20041;-72
2023/04/23 06:05:11;;;;;;;44.45;25.42;;;;;;;;;;2023883;29;20040;-75
2023/04/23 06:06:32;;;;;;;45.88;24.23;;;;;;;;;;2025116;29;20053;-75
2023/04/23 06:07:53;;;;;;;40.72;22.63;;;;;;;;;;2024742;29;20048;-75
2023/04/23 06:09:14;;;;;;;42.45;24.35;;;;;;;;;;2025578;29;20036;-75
2023/04/23 06:10:35;;;;;;;36.58;21.15;;;;;;;;;;2029270;29;20040;-75
2023/04/23 06:11:56;;;;;;;37.55;22.50;;;;;;;;;;2019149;29;20397;-75
2023/04/23 06:13:17;;;;;;;43.33;23.58;;;;;;;;;;2009049;29;20325;-75
2023/04/23 06:14:38;;;;;;;41.35;24.35;;;;;;;;;;2021530;29;20036;-75
2023/04/23 06:15:59;;;;;;;42.45;26.15;;;;;;;;;;2022816;29;20055;-72
2023/04/23 06:17:20;;;;;;;39.92;22.55;;;;;;;;;;2009631;29;20049;-75
2023/04/23 06:18:41;;;;;;;37.90;21.38;;;;;;;;;;2015539;29;20033;-75
2023/04/23 06:20:03;;;;;;;39.15;22.30;;;;;;;;;;2026246;29;20040;-74
2023/04/23 06:21:26;;;;;;;42.20;24.83;;;;;;;;;;2024546;29;20037;-75
2023/04/23 06:22:46;;;;;;;;;;;;;;;;;;2025774;29;20041;-73
2023/04/23 06:24:07;;;;;;;38.40;21.73;;;;;;;;;;2024849;29;19938;-73
2023/04/23 06:25:28;;;;;;;40.10;22.45;;;;;;;;;;2020454;29;20508;-73
2023/04/23 06:26:49;;;;;;;37.53;22.23;;;;;;;;;;2016571;29;20037;-73
2023/04/23 06:28:10;;;;;;;37.38;20.25;;;;;;;;;;2015176;29;20057;-73
2023/04/23 06:29:31;;;;;;;35.35;20.30;;;;;;;;;;2022355;29;20080;-73
2023/04/23 06:30:52;;;;;;;38.42;20.30;;;;;;;;;;2020811;29;20602;-73
2023/04/23 06:32:12;;;;;;;34.28;20.60;;;;;;;;;;2017147;29;20044;-73
2023/04/23 06:33:35;;;;;;;34.70;20.33;;;;;;;;;;2017179;29;20045;-73
2023/04/23 06:34:56;;;;;;;35.05;20.67;;;;;;;;;;2018340;29;20051;-73
2023/04/23 06:36:17;;;;;;;33.13;20.50;;;;;;;;;;2021862;29;20156;-73
2023/04/23 06:37:38;;;;;;;36.22;19.38;;;;;;;;;;2019105;29;20037;-73
2023/04/23 06:38:59;;;;;;;32.08;18.88;;;;;;;;;;2027024;29;20028;-73
2023/04/23 06:40:20;;;;;;;33.22;18.67;;;;;;;;;;2021979;29;20036;-73
2023/04/23 06:41:41;;;;;;;34.88;19.42;;;;;;;;;;2008635;29;20441;-72
2023/04/23 06:43:04;;;;;;;30.25;18.10;;;;;;;;;;2016871;29;20044;-73
2023/04/23 06:44:24;;;;;;;35.40;19.30;;;;;;;;;;2014885;29;20495;-73
2023/04/23 06:45:45;;;;;;;34.83;19.35;;;;;;;;;;2016961;29;20044;-73
2023/04/23 06:47:06;;;;;;;33.30;18.42;;;;;;;;;;2025152;29;20047;-73
2023/04/23 06:48:27;;;;;;;30.63;17.23;;;;;;;;;;2024642;29;20120;-73
2023/04/23 06:49:48;;;;;;;30.85;20.50;;;;;;;;;;2025246;29;20068;-73
2023/04/23 06:51:09;;;;;;;33.97;18.60;;;;;;;;;;2025951;29;20360;-73
2023/04/23 06:52:30;;;;;;;35.35;19.05;;;;;;;;;;2024935;29;20032;-73
2023/04/23 06:53:51;;;;;;;28.85;18.27;;;;;;;;;;2024471;29;20445;-73
2023/04/23 06:55:11;;;;;;;30.08;16.83;;;;;;;;;;2019779;29;20080;-73
2023/04/23 06:56:32;;;;;;;22.95;14.70;;;;;;;;;;2022314;29;20036;-73
2023/04/23 06:57:53;;;;;;;29.75;17.38;;;;;;;;;;2023759;29;20365;-73
2023/04/23 06:59:14;;;;;;;27.58;17.10;;;;;;;;;;2024733;29;20036;-74
2023/04/23 07:00:35;;;;;;;29.15;15.93;;;;;;;;;;2028496;29;20036;-73
2023/04/23 07:01:56;;;;;;;28.17;16.25;;;;;;;;;;2013169;29;20118;-73
2023/04/23 07:03:17;;;;;;;25.08;15.50;;;;;;;;;;2028743;29;20103;-74
2023/04/23 07:04:38;;;;;;;24.08;14.55;;;;;;;;;;2029893;29;20035;-73
2023/04/23 07:05:59;;;;;;;26.83;14.23;;;;;;;;;;2030325;29;20514;-73
2023/04/23 07:07:20;;;;;;;21.50;13.95;;;;;;;;;;2032340;29;20033;-74
2023/04/23 07:08:41;;;;;;;23.20;13.13;;;;;;;;;;2022963;29;20040;-73
2023/04/23 07:10:05;;;;;;;25.48;14.45;;;;;;;;;;2031036;29;20036;-74
2023/04/23 07:11:28;;;;;;;22.02;12.73;;;;;;;;;;2032001;29;20444;-73
2023/04/23 07:12:49;;;;;;;19.85;12.15;;;;;;;;;;2032557;29;20040;-74
2023/04/23 07:14:10;;;;;;;19.02;12.02;;;;;;;;;;2031300;29;20040;-74
2023/04/23 07:15:31;;;;;;;21.52;12.70;;;;;;;;;;2035854;29;20375;-74
2023/04/23 07:16:53;;;;;;;22.48;13.65;;;;;;;;;;2030723;29;20047;-74
2023/04/23 07:18:14;;;;;;;;;;;;;;;;;;2031799;29;20032;-74
2023/04/23 07:19:35;;;;;;;19.23;11.88;;;;;;;;;;2022513;29;19911;-74
2023/04/23 07:20:56;;;;;;;22.67;12.77;;;;;;;;;;2027458;29;20032;-73
2023/04/23 07:22:17;;;;;;;20.70;12.85;;;;;;;;;;2032372;29;20028;-74
2023/04/23 07:23:37;;;;;;;18.15;12.27;;;;;;;;;;2032302;29;20356;-74
2023/04/23 07:24:59;;;;;;;21.20;10.80;;;;;;;;;;2026322;29;20039;-73
2023/04/23 07:26:20;;;;;;;20.73;11.35;;;;;;;;;;2030113;29;20360;-73
2023/04/23 07:27:40;;;;;;;18.58;10.70;;;;;;;;;;2023549;29;20032;-73
2023/04/23 07:29:03;;;;;;;18.80;10.80;;;;;;;;;;2026987;29;20036;-74
2023/04/23 07:30:23;;;;;;;;;;;;;;;;;;2034824;29;20039;-74
2023/04/23 07:31:45;;;;;;;15.45;10.48;;;;;;;;;;2030307;29;20031;-74
2023/04/23 07:33:06;;;;;;;18.55;10.35;;;;;;;;;;2032483;29;20028;-74
2023/04/23 07:34:26;;;;;;;21.65;11.93;;;;;;;;;;2032574;29;20067;-74
2023/04/23 07:35:47;;;;;;;19.92;11.20;;;;;;;;;;2020770;29;20135;-74
2023/04/23 07:37:08;;;;;;;18.40;10.45;;;;;;;;;;2029952;29;20035;-74
2023/04/23 07:38:29;;;;;;;17.80;9.63;;;;;;;;;;2032445;29;20043;-74
2023/04/23 07:39:50;;;;;;;17.88;10.05;;;;;;;;;;2025044;29;20032;-74
2023/04/23 07:41:11;;;;;;;17.98;9.05;;;;;;;;;;2023250;29;20036;-74
2023/04/23 07:42:32;;;;;;;15.90;9.63;;;;;;;;;;2029895;29;20033;-75
2023/04/23 07:43:53;;;;;;;21.30;9.75;;;;;;;;;;2028713;29;20085;-74
2023/04/23 07:45:14;;;;;;;20.08;9.27;;;;;;;;;;2032926;29;20433;-74
2023/04/23 07:46:35;;;;;;;16.95;9.00;;;;;;;;;;2032343;29;20480;-74
2023/04/23 07:47:56;;;;;;;15.43;8.95;;;;;;;;;;2024140;29;20040;-74
2023/04/23 07:49:17;;;;;;;16.88;9.10;;;;;;;;;;2030198;29;20047;-76
2023/04/23 07:50:38;;;;;;;20.35;9.32;;;;;;;;;;2036143;29;20043;-74
2023/04/23 07:51:59;;;;;;;15.48;8.50;;;;;;;;;;2025345;29;20377;-74
2023/04/23 07:53:20;;;;;;;16.33;8.82;;;;;;;;;;2023821;29;20508;-74